Terminal Aerodrome Forecast
Issued by NWS

Home | Current Version | Previous Version | Graphics & Text | Print | Product List | Glossary On
Versions: 1 2 3 4 5 6 7 8 9 10 11 12 13 14 15 16
000
FTUS43 KBIS 161100
TAFMOT
TAF
KMOT 161135Z 1612/1712 06015G22KT 3SM -SN OVC013
     FM161500 03017G23KT P6SM -SN BKN015 OVC025
     FM161800 04015KT P6SM BKN035
     FM170300 04010KT 6SM BR BKN020
     FM170900 08009KT 3SM BR OVC015=

USA.gov is the U.S. government's official web portal to all federal, state and local government web resources and services.